Kakushu Maru — JG5688 — position and weather

sailwx.info

Track history (hours):
 
Tides and Currents Weather Stations Pressure Air Temp Water Temp Dewpoint Dewpoint Depression Visibility Wind Speed Wind Dir Waves Ship Positions

Kakushu Maru

Last reported at 2014-Oct-19 15:32 UTC. Time now 2014-Oct-21 12:10 UTC.
Position N 34°00' E 134°59'.

Length 105 m; draft 6.7 m.

Type: Tanker. MMSI: 431101016.

Date/timePositionNaut miles runAvg speedWind from/ knotsBaromVisibWave heightAir tempDewpointWater temp
2014-Oct-19 15:32N 34°00' E 134°59'1414.2
2014-Oct-19 14:33N 34°14' E 134°59'1514.8
2014-Oct-19 13:33N 34°29' E 135°02'9 8.9
2014-Oct-19 12:33N 34°36' E 134°55'114 2.8
2014-Oct-17 19:30N 33°59' E 132°44'  
2014-Oct-11 10:33N 34°35' E 134°53'1312.8
2014-Oct-11 09:33N 34°35' E 135°09'1313.5
2014-Oct-11 08:33N 34°32' E 135°24'0 0.0
2014-Oct-11 04:33N 34°31' E 135°24'6 4.9
2014-Oct-11 03:22N 34°32' E 135°17'0 0.0
2014-Oct-11 02:28N 34°32' E 135°17'0 0.0
2014-Oct-11 01:28N 34°32' E 135°17'0 0.0
2014-Oct-11 00:28N 34°32' E 135°18'9 9.3
2014-Oct-10 23:33N 34°33' E 135°07'1010.2
2014-Oct-10 22:33N 34°36' E 134°55'111 4.0
2014-Oct-09 18:27N 34°02' E 132°47'  
Track history (hours):
 
Tides and Currents Weather Stations Pressure Air Temp Water Temp Dewpoint Dewpoint Depression Visibility Wind Speed Wind Dir Waves Ship Positions

Kakushu Maru

Last reported at 2014-Oct-19 15:32 UTC. Time now 2014-Oct-21 12:10 UTC.
Position N 34°00' E 134°59'.

Length 105 m; draft 6.7 m.

Type: Tanker. MMSI: 431101016.

Date/timePositionNaut miles runAvg speedWind from/ knotsBaromVisibWave heightAir tempDewpointWater temp
2014-Oct-19 15:32N 34°00' E 134°59'1414.2
2014-Oct-19 14:33N 34°14' E 134°59'1514.8
2014-Oct-19 13:33N 34°29' E 135°02'9 8.9
2014-Oct-19 12:33N 34°36' E 134°55'114 2.8
2014-Oct-17 19:30N 33°59' E 132°44'  
2014-Oct-11 10:33N 34°35' E 134°53'1312.8
2014-Oct-11 09:33N 34°35' E 135°09'1313.5
2014-Oct-11 08:33N 34°32' E 135°24'0 0.0
2014-Oct-11 04:33N 34°31' E 135°24'6 4.9
2014-Oct-11 03:22N 34°32' E 135°17'0 0.0
2014-Oct-11 02:28N 34°32' E 135°17'0 0.0
2014-Oct-11 01:28N 34°32' E 135°17'0 0.0
2014-Oct-11 00:28N 34°32' E 135°18'9 9.3
2014-Oct-10 23:33N 34°33' E 135°07'1010.2
2014-Oct-10 22:33N 34°36' E 134°55'111 4.0
2014-Oct-09 18:27N 34°02' E 132°47'  

Dump ship's entire track history